createdAt,value
2023-01-25T00:00:01.119Z,100010.59
2023-01-25T00:02:28.084Z,100010.78
2023-01-25T00:04:54.609Z,100003.16
2023-01-25T00:07:21.193Z,100005.31
2023-01-25T00:09:47.668Z,100000.63
2023-01-25T00:12:14.208Z,100003.13
2023-01-25T00:14:40.788Z,100005.66
2023-01-25T00:17:07.260Z,99997.69
2023-01-25T00:19:33.751Z,100001.38
2023-01-25T00:22:00.259Z,99995.72
2023-01-25T00:24:26.738Z,100000.72
2023-01-25T00:26:53.305Z,99996.69
2023-01-25T00:29:20.030Z,99990.38
2023-01-25T00:31:49.354Z,99993.53
2023-01-25T00:34:24.725Z,99990.69
2023-01-25T00:37:01.139Z,99984.50
2023-01-25T00:39:28.179Z,99982.72
2023-01-25T00:41:55.557Z,99980.06
2023-01-25T00:44:22.400Z,99982.88
2023-01-25T00:46:48.906Z,99977.88
2023-01-25T00:49:27.308Z,99973.38
2023-01-25T00:51:55.919Z,99975.06
2023-01-25T00:54:23.019Z,99974.41
2023-01-25T00:56:52.437Z,99970.75
2023-01-25T00:59:19.270Z,99972.78
2023-01-25T01:01:45.767Z,99967.59
2023-01-25T01:04:12.280Z,99967.28
2023-01-25T01:06:39.818Z,99965.13
2023-01-25T01:09:09.646Z,99975.41
2023-01-25T01:11:36.124Z,99959.47
2023-01-25T01:14:02.585Z,99970.25
2023-01-25T01:16:29.094Z,99960.78
2023-01-25T01:18:55.597Z,99965.44
2023-01-25T01:21:22.130Z,99959.09
2023-01-25T01:23:48.794Z,99965.06
2023-01-25T01:26:19.446Z,99964.28
2023-01-25T01:28:45.973Z,99960.75
2023-01-25T01:31:15.857Z,99959.44
2023-01-25T01:33:42.729Z,99959.28
2023-01-25T01:36:14.479Z,99953.78
2023-01-25T01:38:42.372Z,99961.59
2023-01-25T01:41:10.170Z,99953.63
2023-01-25T01:43:37.112Z,99955.13
2023-01-25T01:46:10.014Z,99949.63
2023-01-25T01:48:55.445Z,99949.13
2023-01-25T01:51:45.744Z,99940.16
2023-01-25T01:54:22.060Z,99937.50
2023-01-25T01:57:09.577Z,99942.16
2023-01-25T01:59:58.902Z,99942.00
2023-01-25T02:02:26.884Z,99944.16
2023-01-25T02:04:57.980Z,99944.19
2023-01-25T02:07:33.948Z,99940.19
2023-01-25T02:10:03.515Z,99942.66
2023-01-25T02:12:30.100Z,99939.47
2023-01-25T02:14:56.545Z,99942.28
2023-01-25T02:17:30.292Z,99943.50
2023-01-25T02:20:24.207Z,99940.84
2023-01-25T02:23:03.582Z,99944.81
2023-01-25T02:25:30.687Z,99940.97
2023-01-25T02:28:12.957Z,99944.63
2023-01-25T02:30:39.800Z,99940.16
2023-01-25T02:33:06.302Z,99940.81
2023-01-25T02:35:38.633Z,99930.50
2023-01-25T02:38:06.920Z,99938.44
2023-01-25T02:40:41.781Z,99935.97
2023-01-25T02:43:08.237Z,99927.81
2023-01-25T02:45:34.719Z,99931.84
2023-01-25T02:48:01.219Z,99924.50
2023-01-25T02:50:27.677Z,99920.19
2023-01-25T02:52:54.136Z,99923.50
2023-01-25T02:55:20.643Z,99909.91
2023-01-25T02:57:47.112Z,99920.81
2023-01-25T03:00:13.908Z,99911.38
2023-01-25T03:02:40.505Z,99914.22
2023-01-25T03:05:07.595Z,99911.22
2023-01-25T03:07:34.238Z,99916.19
2023-01-25T03:10:00.670Z,99911.88
2023-01-25T03:12:27.100Z,99911.22
2023-01-25T03:14:53.638Z,99909.53
2023-01-25T03:17:20.171Z,99915.31
2023-01-25T03:19:46.659Z,99921.16
2023-01-25T03:22:13.464Z,99913.31
2023-01-25T03:24:39.898Z,99923.13
2023-01-25T03:27:14.043Z,99919.97
2023-01-25T03:29:41.660Z,99913.19
2023-01-25T03:32:08.762Z,99910.88
2023-01-25T03:34:35.556Z,99916.56
2023-01-25T03:37:02.367Z,99899.63
2023-01-25T03:39:28.890Z,99902.59
2023-01-25T03:41:55.439Z,99899.09
2023-01-25T03:44:22.054Z,99897.28
2023-01-25T03:46:48.642Z,99899.94
2023-01-25T03:49:15.130Z,99892.63
2023-01-25T03:51:41.617Z,99902.75
2023-01-25T03:54:08.455Z,99902.59
2023-01-25T03:56:35.083Z,99895.16
2023-01-25T03:59:01.599Z,99897.94
2023-01-25T04:01:28.055Z,99897.75
2023-01-25T04:03:54.535Z,99891.78
2023-01-25T04:06:21.110Z,99884.63
2023-01-25T04:08:47.722Z,99893.97
2023-01-25T04:11:14.198Z,99883.63
2023-01-25T04:13:40.908Z,99885.97
2023-01-25T04:16:11.735Z,99883.81
2023-01-25T04:18:38.793Z,99879.97
2023-01-25T04:21:05.575Z,99880.81
2023-01-25T04:23:32.236Z,99880.66
2023-01-25T04:26:07.600Z,99878.19
2023-01-25T04:28:35.231Z,99873.19
2023-01-25T04:31:03.634Z,99868.03
2023-01-25T04:33:30.235Z,99859.38
2023-01-25T04:35:57.516Z,99867.53
2023-01-25T04:38:24.419Z,99867.69
2023-01-25T04:40:52.130Z,99858.88
2023-01-25T04:43:19.748Z,99852.06
2023-01-25T04:45:47.010Z,99860.34
2023-01-25T04:48:14.266Z,99847.06
2023-01-25T04:50:42.072Z,99843.75
2023-01-25T04:53:10.267Z,99845.25
2023-01-25T04:55:36.844Z,99846.06
2023-01-25T04:58:04.461Z,99845.25
2023-01-25T05:00:31.263Z,99843.28
2023-01-25T05:02:58.146Z,99841.25
2023-01-25T05:05:24.636Z,99849.56
2023-01-25T05:07:51.219Z,99840.09
2023-01-25T05:10:17.759Z,99846.22
2023-01-25T05:12:44.216Z,99852.56
2023-01-25T05:15:11.506Z,99852.31
2023-01-25T05:17:38.453Z,99854.69
2023-01-25T05:20:05.350Z,99852.72
2023-01-25T05:22:32.057Z,99847.72
2023-01-25T05:24:59.238Z,99857.50
2023-01-25T05:27:25.828Z,99857.50
2023-01-25T05:29:52.391Z,99857.69
2023-01-25T05:32:21.493Z,99857.16
2023-01-25T05:34:48.136Z,99865.28
2023-01-25T05:37:17.427Z,99869.91
2023-01-25T05:39:43.894Z,99868.91
2023-01-25T05:42:16.112Z,99871.59
2023-01-25T05:44:45.300Z,99866.66
2023-01-25T05:47:14.916Z,99875.13
2023-01-25T05:49:41.496Z,99863.00
2023-01-25T05:52:10.824Z,99864.66
2023-01-25T05:54:37.286Z,99865.94
2023-01-25T05:57:03.869Z,99858.91
2023-01-25T05:59:30.381Z,99857.47
2023-01-25T06:01:56.919Z,99853.25
2023-01-25T06:04:23.396Z,99858.50
2023-01-25T06:06:49.878Z,99850.53
2023-01-25T06:09:16.365Z,99854.50
2023-01-25T06:11:46.019Z,99855.00
2023-01-25T06:14:12.535Z,99852.31
2023-01-25T06:16:39.076Z,99856.16
2023-01-25T06:19:06.945Z,99841.38
2023-01-25T06:21:36.997Z,99843.03
2023-01-25T06:24:04.816Z,99843.38
2023-01-25T06:26:31.870Z,99846.00
2023-01-25T06:28:58.397Z,99842.66
2023-01-25T06:31:25.703Z,99844.31
2023-01-25T06:33:52.598Z,99843.19
2023-01-25T06:36:21.137Z,99844.13
2023-01-25T06:38:51.958Z,99836.22
2023-01-25T06:41:19.535Z,99845.72
2023-01-25T06:43:46.900Z,99842.34
2023-01-25T06:46:13.794Z,99837.88
2023-01-25T06:48:41.744Z,99845.66
2023-01-25T06:51:09.788Z,99842.31
2023-01-25T06:53:39.497Z,99842.84
2023-01-25T06:56:12.401Z,99841.38
2023-01-25T06:58:39.459Z,99837.00
2023-01-25T07:01:19.849Z,99836.22
2023-01-25T07:03:51.218Z,99831.41
2023-01-25T07:06:18.596Z,99839.53
2023-01-25T07:08:45.176Z,99832.06
2023-01-25T07:11:13.937Z,99833.06
2023-01-25T07:13:47.785Z,99831.56
2023-01-25T07:16:19.810Z,99827.72
2023-01-25T07:18:47.008Z,99824.81
2023-01-25T07:21:16.871Z,99827.81
2023-01-25T07:23:43.856Z,99818.81
2023-01-25T07:26:20.453Z,99822.81
2023-01-25T07:28:48.341Z,99823.81
2023-01-25T07:31:16.271Z,99818.50
2023-01-25T07:33:42.921Z,99820.47
2023-01-25T07:36:10.881Z,99814.81
2023-01-25T07:38:37.970Z,99818.97
2023-01-25T07:41:05.023Z,99823.28
2023-01-25T07:43:32.081Z,99820.09
2023-01-25T07:46:12.362Z,99817.09
2023-01-25T07:48:41.275Z,99814.09
2023-01-25T07:51:12.984Z,99820.78
2023-01-25T07:53:43.261Z,99819.28
2023-01-25T07:56:11.644Z,99826.41
2023-01-25T07:58:38.333Z,99823.72
2023-01-25T08:01:12.329Z,99821.41
2023-01-25T08:03:39.617Z,99825.19
2023-01-25T08:06:07.327Z,99825.41
2023-01-25T08:08:36.369Z,99819.78
2023-01-25T08:11:13.261Z,99820.09
2023-01-25T08:13:40.816Z,99821.28
2023-01-25T08:16:07.562Z,99816.50
2023-01-25T08:18:35.905Z,99812.78
2023-01-25T08:21:03.351Z,99818.78
2023-01-25T08:23:30.576Z,99813.81
2023-01-25T08:26:02.094Z,99809.13
2023-01-25T08:28:28.651Z,99812.63
2023-01-25T08:30:57.596Z,99808.50
2023-01-25T08:33:25.430Z,99811.94
2023-01-25T08:35:56.758Z,99807.84
2023-01-25T08:38:23.327Z,99814.13
2023-01-25T08:40:49.939Z,99810.66
2023-01-25T08:43:16.541Z,99812.00
2023-01-25T08:45:43.069Z,99807.19
2023-01-25T08:48:10.447Z,99803.88
2023-01-25T08:50:36.911Z,99802.53
2023-01-25T08:53:03.383Z,99794.75
2023-01-25T08:55:29.878Z,99798.06
2023-01-25T08:57:56.702Z,99789.25
2023-01-25T09:00:24.016Z,99791.59
2023-01-25T09:02:50.555Z,99787.25
2023-01-25T09:05:16.987Z,99782.97
2023-01-25T09:07:43.522Z,99781.28
2023-01-25T09:10:10.729Z,99781.63
2023-01-25T09:12:38.210Z,99778.63
2023-01-25T09:15:05.075Z,99779.94
2023-01-25T09:17:31.619Z,99778.66
2023-01-25T09:19:58.197Z,99781.59
2023-01-25T09:22:24.804Z,99786.25
2023-01-25T09:24:53.927Z,99771.47
2023-01-25T09:27:20.705Z,99777.63
2023-01-25T09:30:00.943Z,99782.28
2023-01-25T09:32:28.920Z,99776.31
2023-01-25T09:34:55.524Z,99777.81
2023-01-25T09:37:22.041Z,99781.28
2023-01-25T09:39:48.480Z,99776.28
2023-01-25T09:42:33.174Z,99781.75
2023-01-25T09:45:12.525Z,99780.28
2023-01-25T09:47:44.331Z,99786.59
2023-01-25T09:50:18.117Z,99778.47
2023-01-25T09:53:06.332Z,99774.31
2023-01-25T09:55:33.826Z,99773.97
2023-01-25T09:58:02.774Z,99772.28
2023-01-25T10:00:36.619Z,99772.63
2023-01-25T10:03:34.140Z,99773.59
2023-01-25T10:06:02.612Z,99766.16
2023-01-25T10:08:55.347Z,99769.28
2023-01-25T10:11:26.662Z,99771.28
2023-01-25T10:13:56.060Z,99766.97
2023-01-25T10:16:37.613Z,99764.13
2023-01-25T10:19:07.104Z,99758.63
2023-01-25T10:21:45.401Z,99758.97
2023-01-25T10:24:34.848Z,99756.63
2023-01-25T10:27:40.441Z,99751.69
2023-01-25T10:30:30.187Z,99751.81
2023-01-25T10:33:07.589Z,99751.19
2023-01-25T10:35:43.111Z,99745.34
2023-01-25T10:38:42.418Z,99741.88
2023-01-25T10:41:36.445Z,99725.25
2023-01-25T10:44:35.228Z,99725.56
2023-01-25T10:47:11.868Z,99725.03
2023-01-25T10:49:51.902Z,99723.03
2023-01-25T10:52:31.491Z,99722.38
2023-01-25T10:55:15.985Z,99723.78
2023-01-25T10:57:44.294Z,99720.59
2023-01-25T11:00:41.124Z,99715.75
2023-01-25T11:03:20.252Z,99713.09
2023-01-25T11:05:55.515Z,99716.28
2023-01-25T11:08:33.234Z,99712.72
2023-01-25T11:11:00.196Z,99708.44
2023-01-25T11:13:28.994Z,99712.56
2023-01-25T11:16:07.165Z,99704.97
2023-01-25T11:18:35.236Z,99702.44
2023-01-25T11:21:04.804Z,99692.13
2023-01-25T11:23:34.696Z,99695.88
2023-01-25T11:26:34.850Z,99688.72
2023-01-25T11:29:14.763Z,99690.69
2023-01-25T11:31:45.999Z,99681.19
2023-01-25T11:34:15.613Z,99678.53
2023-01-25T11:37:05.098Z,99678.41
2023-01-25T11:39:48.572Z,99681.75
2023-01-25T11:42:33.965Z,99680.69
2023-01-25T11:45:07.261Z,99673.25
2023-01-25T11:47:36.627Z,99653.63
2023-01-25T11:50:16.140Z,99667.44
2023-01-25T11:53:04.122Z,99661.41
2023-01-25T11:55:55.379Z,99654.44
2023-01-25T11:58:24.528Z,99657.41
2023-01-25T12:01:25.133Z,99651.97
2023-01-25T12:04:17.820Z,99646.91
2023-01-25T12:07:00.553Z,99648.38
2023-01-25T12:09:36.732Z,99637.03
2023-01-25T12:12:33.787Z,99628.13
2023-01-25T12:15:09.246Z,99627.13
2023-01-25T12:17:41.652Z,99625.47
2023-01-25T12:20:23.816Z,99612.56
2023-01-25T12:22:50.267Z,99614.34
2023-01-25T12:25:48.849Z,99613.66
2023-01-25T12:28:22.647Z,99601.53
2023-01-25T12:31:08.172Z,99603.88
2023-01-25T12:33:42.057Z,99597.19
2023-01-25T12:36:27.080Z,99589.75
2023-01-25T12:39:11.144Z,99579.41
2023-01-25T12:41:57.105Z,99582.31
2023-01-25T12:44:42.401Z,99572.72
2023-01-25T12:47:22.295Z,99564.09
2023-01-25T12:49:59.239Z,99558.72
2023-01-25T12:52:41.265Z,99566.44
2023-01-25T12:55:14.334Z,99558.81
2023-01-25T12:57:53.621Z,99553.78
2023-01-25T13:00:41.297Z,99548.81
2023-01-25T13:03:26.550Z,99550.81
2023-01-25T13:06:32.512Z,99541.25
2023-01-25T13:09:16.180Z,99538.94
2023-01-25T13:11:45.086Z,99534.44
2023-01-25T13:14:17.869Z,99531.63
2023-01-25T13:17:08.532Z,99532.84
2023-01-25T13:19:36.435Z,99537.09
2023-01-25T13:22:03.549Z,99522.16
2023-01-25T13:24:34.863Z,99522.66
2023-01-25T13:27:23.448Z,99523.63
2023-01-25T13:30:22.857Z,99518.31
2023-01-25T13:32:49.383Z,99514.31
2023-01-25T13:35:29.154Z,99515.94
2023-01-25T13:38:26.740Z,99506.59
2023-01-25T13:41:12.024Z,99509.56
2023-01-25T13:43:40.944Z,99508.91
2023-01-25T13:46:10.882Z,99504.78
2023-01-25T13:48:46.624Z,99508.19
2023-01-25T13:51:16.901Z,99502.78
2023-01-25T13:53:55.436Z,99503.50
2023-01-25T13:56:34.049Z,99500.84
2023-01-25T13:59:00.636Z,99512.06
2023-01-25T14:01:29.221Z,99507.63
2023-01-25T14:04:01.790Z,99503.16
2023-01-25T14:06:32.190Z,99496.50
2023-01-25T14:09:07.381Z,99493.47
2023-01-25T14:11:36.214Z,99495.53
2023-01-25T14:14:25.664Z,99493.44
2023-01-25T14:17:19.166Z,99502.44
2023-01-25T14:19:52.030Z,99501.38
2023-01-25T14:22:33.766Z,99492.53
2023-01-25T14:25:13.924Z,99495.13
2023-01-25T14:27:44.727Z,99496.97
2023-01-25T14:30:35.326Z,99487.13
2023-01-25T14:33:15.650Z,99484.28
2023-01-25T14:35:54.342Z,99480.63
2023-01-25T14:38:32.882Z,99483.28
2023-01-25T14:41:06.545Z,99482.44
2023-01-25T14:43:36.108Z,99483.91
2023-01-25T14:46:28.081Z,99478.06
2023-01-25T14:49:13.136Z,99479.25
2023-01-25T14:51:46.925Z,99475.88
2023-01-25T14:54:25.830Z,99468.25
2023-01-25T14:57:00.960Z,99470.91
2023-01-25T14:59:27.403Z,99473.41
2023-01-25T15:01:56.268Z,99476.19
2023-01-25T15:04:23.545Z,99471.03
2023-01-25T15:06:52.211Z,99461.47
2023-01-25T15:09:36.233Z,99455.25
2023-01-25T15:12:16.504Z,99464.53
2023-01-25T15:14:51.587Z,99457.03
2023-01-25T15:17:40.339Z,99455.56
2023-01-25T15:20:27.414Z,99451.94
2023-01-25T15:22:56.080Z,99447.72
2023-01-25T15:25:24.249Z,99445.78
2023-01-25T15:27:51.305Z,99442.38
2023-01-25T15:30:18.915Z,99450.19
2023-01-25T15:32:46.417Z,99442.91
2023-01-25T15:35:15.442Z,99442.44
2023-01-25T15:37:42.074Z,99447.22
2023-01-25T15:40:10.743Z,99440.53
2023-01-25T15:42:37.939Z,99443.91
2023-01-25T15:45:06.823Z,99439.56
2023-01-25T15:47:33.511Z,99429.75
2023-01-25T15:49:59.960Z,99426.91
2023-01-25T15:52:26.420Z,99435.81
2023-01-25T15:55:01.484Z,99426.78
2023-01-25T15:57:31.587Z,99425.13
2023-01-25T16:00:01.136Z,99427.13
2023-01-25T16:02:28.742Z,99428.75
2023-01-25T16:04:55.236Z,99421.44
2023-01-25T16:07:38.729Z,99421.88
2023-01-25T16:10:06.099Z,99426.53
2023-01-25T16:12:34.470Z,99422.06
2023-01-25T16:15:00.963Z,99418.53
2023-01-25T16:17:30.426Z,99424.09
2023-01-25T16:19:56.856Z,99422.16
2023-01-25T16:22:23.344Z,99417.19
2023-01-25T16:24:49.812Z,99416.09
2023-01-25T16:27:25.416Z,99417.75
2023-01-25T16:29:52.685Z,99410.66
2023-01-25T16:32:19.299Z,99416.22
2023-01-25T16:34:45.770Z,99412.59
2023-01-25T16:37:16.718Z,99408.59
2023-01-25T16:39:43.217Z,99404.38
2023-01-25T16:42:10.555Z,99409.03
2023-01-25T16:44:37.905Z,99402.03
2023-01-25T16:47:05.260Z,99396.53
2023-01-25T16:49:33.443Z,99400.09
2023-01-25T16:52:03.206Z,99404.69
2023-01-25T16:54:29.957Z,99386.72
2023-01-25T16:56:56.956Z,99385.88
2023-01-25T16:59:24.686Z,99391.75
2023-01-25T17:01:51.364Z,99388.78
2023-01-25T17:04:18.721Z,99370.19
2023-01-25T17:06:48.598Z,99383.06
2023-01-25T17:09:23.692Z,99378.22
2023-01-25T17:11:51.040Z,99376.06
2023-01-25T17:14:21.466Z,99375.13
2023-01-25T17:16:51.297Z,99360.00
2023-01-25T17:19:19.051Z,99366.00
2023-01-25T17:21:45.809Z,99362.41
2023-01-25T17:24:15.301Z,99360.63
2023-01-25T17:26:42.106Z,99352.44
2023-01-25T17:29:10.125Z,99347.94
2023-01-25T17:31:37.361Z,99351.88
2023-01-25T17:34:06.667Z,99347.53
2023-01-25T17:36:33.536Z,99350.91
2023-01-25T17:39:07.323Z,99348.66
2023-01-25T17:41:34.069Z,99351.63
2023-01-25T17:44:00.625Z,99357.06
2023-01-25T17:46:32.366Z,99355.50
2023-01-25T17:49:01.018Z,99345.94
2023-01-25T17:51:28.307Z,99349.56
2023-01-25T17:53:54.823Z,99342.88
2023-01-25T17:56:21.473Z,99335.38
2023-01-25T17:58:48.007Z,99332.72
2023-01-25T18:01:15.866Z,99335.56
2023-01-25T18:03:43.845Z,99336.50
2023-01-25T18:06:13.928Z,99330.81
2023-01-25T18:08:42.407Z,99337.66
2023-01-25T18:11:11.020Z,99327.28
2023-01-25T18:13:41.813Z,99312.81
2023-01-25T18:16:09.795Z,99323.09
2023-01-25T18:18:37.681Z,99321.59
2023-01-25T18:21:12.339Z,99323.19
2023-01-25T18:23:40.720Z,99323.72
2023-01-25T18:26:15.980Z,99322.25
2023-01-25T18:28:42.457Z,99318.91
2023-01-25T18:31:10.868Z,99322.22
2023-01-25T18:33:38.371Z,99318.59
2023-01-25T18:36:05.508Z,99317.22
2023-01-25T18:38:32.918Z,99312.63
2023-01-25T18:40:59.737Z,99308.38
2023-01-25T18:43:28.013Z,99308.84
2023-01-25T18:45:56.610Z,99308.53
2023-01-25T18:48:43.600Z,99316.28
2023-01-25T18:51:12.845Z,99316.19
2023-01-25T18:53:41.408Z,99304.47
2023-01-25T18:56:10.424Z,99307.44
2023-01-25T18:58:38.357Z,99312.41
2023-01-25T19:01:11.227Z,99307.25
2023-01-25T19:03:40.413Z,99302.50
2023-01-25T19:06:07.397Z,99298.44
2023-01-25T19:08:36.352Z,99305.56
2023-01-25T19:11:06.070Z,99299.78
2023-01-25T19:13:38.154Z,99301.94
2023-01-25T19:16:11.188Z,99298.50
2023-01-25T19:18:46.336Z,99298.69
2023-01-25T19:21:18.659Z,99292.78
2023-01-25T19:23:45.176Z,99284.34
2023-01-25T19:26:14.132Z,99287.59
2023-01-25T19:28:41.457Z,99293.03
2023-01-25T19:31:20.117Z,99293.56
2023-01-25T19:33:47.724Z,99284.16
2023-01-25T19:36:19.060Z,99275.53
2023-01-25T19:38:47.401Z,99286.13
2023-01-25T19:41:22.681Z,99279.91
2023-01-25T19:43:58.574Z,99276.94
2023-01-25T19:46:28.121Z,99280.38
2023-01-25T19:48:55.027Z,99272.84
2023-01-25T19:51:24.401Z,99266.53
2023-01-25T19:53:58.637Z,99269.81
2023-01-25T19:56:26.329Z,99261.81
2023-01-25T19:58:52.839Z,99253.28
2023-01-25T20:01:27.608Z,99256.53
2023-01-25T20:04:00.951Z,99254.41
2023-01-25T20:06:27.879Z,99261.41
2023-01-25T20:08:54.704Z,99252.47
2023-01-25T20:11:29.556Z,99252.75
2023-01-25T20:13:58.454Z,99245.56
2023-01-25T20:16:27.146Z,99251.88
2023-01-25T20:18:55.391Z,99251.78
2023-01-25T20:21:23.496Z,99246.72
2023-01-25T20:23:56.159Z,99245.34
2023-01-25T20:26:24.947Z,99250.66
2023-01-25T20:28:53.439Z,99243.44
2023-01-25T20:31:44.007Z,99239.63
2023-01-25T20:34:16.408Z,99239.16
2023-01-25T20:36:43.844Z,99234.47
2023-01-25T20:39:15.886Z,99233.84
2023-01-25T20:41:42.797Z,99238.91
2023-01-25T20:44:11.135Z,99231.91
2023-01-25T20:46:38.942Z,99233.03
2023-01-25T20:49:07.408Z,99230.56
2023-01-25T20:51:34.994Z,99231.91
2023-01-25T20:54:01.867Z,99238.25
2023-01-25T20:56:28.704Z,99231.66
2023-01-25T20:58:55.225Z,99227.22
2023-01-25T21:01:29.446Z,99229.41
2023-01-25T21:03:57.870Z,99218.41
2023-01-25T21:06:25.941Z,99213.06
2023-01-25T21:08:52.891Z,99211.06
2023-01-25T21:11:19.997Z,99202.53
2023-01-25T21:13:47.951Z,99207.44
2023-01-25T21:16:21.668Z,99198.91
2023-01-25T21:18:54.625Z,99204.78
2023-01-25T21:21:27.801Z,99205.44
2023-01-25T21:23:57.025Z,99209.06
2023-01-25T21:26:25.886Z,99204.84
2023-01-25T21:28:54.653Z,99206.47
2023-01-25T21:31:26.129Z,99202.47
2023-01-25T21:33:53.407Z,99205.44
2023-01-25T21:36:20.377Z,99198.25
2023-01-25T21:38:49.257Z,99194.09
2023-01-25T21:41:20.020Z,99193.63
2023-01-25T21:44:06.470Z,99195.94
2023-01-25T21:46:33.324Z,99196.91
2023-01-25T21:49:20.304Z,99200.53
2023-01-25T21:51:49.697Z,99189.09
2023-01-25T21:54:18.123Z,99199.28
2023-01-25T21:56:46.348Z,99193.34
2023-01-25T21:59:12.851Z,99201.88
2023-01-25T22:01:39.588Z,99192.84
2023-01-25T22:04:06.215Z,99190.03
2023-01-25T22:06:33.323Z,99188.72
2023-01-25T22:09:00.118Z,99184.88
2023-01-25T22:11:26.999Z,99174.03
2023-01-25T22:13:54.140Z,99177.19
2023-01-25T22:16:21.459Z,99174.25
2023-01-25T22:18:48.566Z,99175.25
2023-01-25T22:21:23.105Z,99166.84
2023-01-25T22:23:50.296Z,99172.91
2023-01-25T22:26:21.827Z,99162.34
2023-01-25T22:28:50.817Z,99169.28
2023-01-25T22:31:19.469Z,99163.63
2023-01-25T22:33:46.240Z,99162.41
2023-01-25T22:36:14.619Z,99159.38
2023-01-25T22:38:41.662Z,99154.78
2023-01-25T22:41:13.538Z,99157.94
2023-01-25T22:43:40.763Z,99154.66
2023-01-25T22:46:10.174Z,99144.88
2023-01-25T22:48:36.668Z,99148.63
2023-01-25T22:51:07.711Z,99142.00
2023-01-25T22:53:34.681Z,99140.75
2023-01-25T22:56:01.101Z,99136.94
2023-01-25T22:58:28.135Z,99137.28
2023-01-25T23:00:54.772Z,99130.56
2023-01-25T23:03:21.327Z,99128.44
2023-01-25T23:05:47.822Z,99127.25
2023-01-25T23:08:14.381Z,99126.78
2023-01-25T23:10:40.858Z,99127.75
2023-01-25T23:13:07.363Z,99122.69
2023-01-25T23:15:33.876Z,99124.41
2023-01-25T23:18:19.031Z,99112.16
2023-01-25T23:20:45.561Z,99119.84
2023-01-25T23:23:12.360Z,99116.16
2023-01-25T23:25:39.432Z,99113.09
2023-01-25T23:28:05.891Z,99113.00
2023-01-25T23:30:32.374Z,99113.16
2023-01-25T23:32:58.913Z,99106.19
2023-01-25T23:35:25.916Z,99098.44
2023-01-25T23:37:52.487Z,99092.91
2023-01-25T23:40:19.110Z,99099.81
2023-01-25T23:42:45.712Z,99094.94
2023-01-25T23:45:12.569Z,99088.44
2023-01-25T23:47:39.267Z,99090.25
2023-01-25T23:50:06.480Z,99088.41
2023-01-25T23:52:33.040Z,99083.75
2023-01-25T23:54:59.561Z,99068.91
2023-01-25T23:57:26.073Z,99070.41
2023-01-25T23:59:52.538Z,99077.72
